• Join FlightAware (Why Join?)
  • Login
  • US Flag 
12:54AM EDT


 

Airport Tracker/Info


-or-


 

Live Flight TrackerFlight Track Log ✈ N836EA ✈ 17-Oct-2013 ✈ KSAT - 11R

Flight Track Log - Related Links

Times and Time Zones

All times are in EDT time to prevent confusion due to time zone crossing. See the N836EA flight status page for this flight to view local times or setup timezone preferences in your user account.

Time Position Orientation Groundspeed Altitude Reporting Facility
EDT Latitude Longitude Course Direction KTS MPH feet Rate Location/Type
07:07PM 29.5264 -98.4586 87° East 119 137 1,800  Level Houston Center
07:08PM 29.5278 -98.4272 87° East 145 167 2,700 1,680 Climbing Houston Center
07:09PM 29.5322 -98.3833 83° East 144 166 4,700 1,920 Climbing Houston Center
07:09PM 29.5322 -98.3836 270° West 146 168 4,700 1,800 Level Houston Center
07:10PM 29.5444 -98.3356 74° East 147 169 6,600 1,860 Climbing Houston Center
07:10PM 29.5442 -98.3317 95° East 155 178 6,800 1,740 Climbing Houston Center
07:11PM 29.5547 -98.2864 75° East 156 180 8,400 1,740 Climbing Houston Center
07:12PM 29.5678 -98.2286 75° East 173 199 10,300 1,740 Climbing Houston Center
07:13PM 29.5769 -98.1689 80° East 190 219 12,000 1,860 Climbing Houston Center
07:14PM 29.5892 -98.1058 77° East 190 219 14,200 1,980 Climbing Houston Center
07:15PM 29.6031 -98.0450 75° East 197 227 16,200 1,380 Climbing Houston Center
07:16PM 29.6197 -97.9767 74° East 223 257 17,100 420 Climbing Houston Center
07:17PM 29.6419 -97.8842 75° East 279 321 17,100 -60 Level Houston Center
07:18PM 29.6628 -97.7956 75° East 296 341 17,000 -60 Descending Houston Center
07:19PM 29.6822 -97.7025 76° East 299 344 17,000  Level Houston Center
07:20PM 29.6747 -97.6075 95° East 297 342 17,000  Level Houston Center
07:21PM 29.6703 -97.5128 93° East 298 343 17,000  Level Houston Center
07:22PM 29.6656 -97.4000 93° East 296 341 17,000  Level Houston Center
07:23PM 29.6608 -97.3064 93° East 294 338 17,000 -60 Level Houston Center
07:24PM 29.6564 -97.2128 93° East 293 337 16,900 -60 Descending Houston Center
07:25PM 29.6744 -97.1267 76° East 297 342 16,900  Level Houston Center
07:26PM 29.7389 -97.0703 37° Northeast 291 335 16,900  Level Houston Center
07:27PM 29.8025 -97.0108 39° Northeast 292 336 16,900 -480 Level Houston Center
07:28PM 29.8642 -96.9517 40° Northeast 288 331 16,000 -1,440 Descending Houston Center
07:29PM 29.9072 -96.9108 39° Northeast 294 338 14,700 -2,460 Descending Houston Center
07:29PM 29.9439 -96.8783 38° Northeast 303 349 13,500 -1,680 Descending Houston Center
07:30PM 29.9753 -96.8458 42° Northeast 307 353 13,000 -720 Descending Houston Center
07:30PM 30.0064 -96.8192 37° Northeast 294 338 12,800 -900 Descending Houston Center
07:31PM 30.0281 -96.7994 38° Northeast 279 321 12,200 -1,860 Descending Houston Center
07:31PM 30.0653 -96.7639 40° Northeast 276 318 10,900 -2,100 Descending Houston Center
07:32PM 30.0922 -96.7369 41° Northeast 275 316 10,100 -2,040 Descending Houston Center
07:32PM 30.1319 -96.6994 39° Northeast 286 329 8,800 -1,980 Descending Houston Center
07:33PM 30.1567 -96.6772 38° Northeast 286 329 8,100 -1,980 Descending Houston Center
07:33PM 30.1933 -96.6417 40° Northeast 285 328 6,800 -1,920 Descending Houston Center
07:34PM 30.2131 -96.6228 40° Northeast 277 319 6,200 -1,980 Descending Houston Center
07:35PM 30.2506 -96.5872 39° Northeast 270 311 4,800 -2,100 Descending Houston Center
07:35PM 30.2717 -96.5681 38° Northeast 259 298 4,100 -1,800 Descending Houston Center
07:36PM 30.3050 -96.5350 41° Northeast 259 298 3,000 -900 Descending Houston Center
07:36PM 30.3297 -96.5111 40° Northeast 232 267 3,100  Climbing Houston Center
07:37PM 30.3547 -96.4881 39° Northeast 241 277 3,000  Descending Houston Center
07:37PM 30.3706 -96.4728 40° Northeast 170 196 3,100  Climbing Houston Center
07:38PM 30.3875 -96.4564 40° Northeast 172 198 3,000  Descending Houston Center
07:38PM 30.3997 -96.4453 38° Northeast 121 139 3,100 60 Climbing Houston Center
07:39PM 30.4022 -96.4128 85° East 158 182 3,100  Level Houston Center
07:39PM 30.3922 -96.4050 146° Southeast 153 176 3,100 -120 Level Houston Center
07:40PM 30.3672 -96.3986 168° South 157 181 3,000 -180 Descending Houston Center